Prudentia — PB4900 — position and weather

sailwx.info

Track history (hours):
 
Tides and Currents Weather Stations Pressure Air Temp Water Temp Dewpoint Dewpoint Depression Visibility Wind Speed Wind Dir Waves Ship Positions

Prudentia

Last reported at 2015-May-05 07:33 UTC. Time now 2015-May-05 08:12 UTC.
Position N 52°24' E 004°52'.

Length 70 m; draft 1.8 m.

Type: Ship. MMSI: 244660779.

Date/timePositionNaut miles runAvg speedWind from/ knotsBaromVisibWave heightAir tempDewpointWater temp
2015-May-05 07:33N 52°24' E 004°52'0 0.0
2015-May-05 06:33N 52°24' E 004°52'0 0.0
2015-May-05 05:33N 52°24' E 004°52'0 0.0
2015-May-05 04:33N 52°24' E 004°52'0 0.0
2015-May-05 03:33N 52°24' E 004°52'0 0.0
2015-May-05 02:33N 52°24' E 004°52'0 0.0
2015-May-05 01:33N 52°24' E 004°52'0 0.0
2015-May-05 00:33N 52°24' E 004°52'0 0.0
2015-May-04 23:33N 52°24' E 004°52'0 0.0
2015-May-04 22:33N 52°24' E 004°52'0 0.0
2015-May-04 21:33N 52°24' E 004°52'0 0.0
2015-May-04 20:33N 52°24' E 004°52'3 2.6
2015-May-04 19:34N 52°23' E 004°56'7 6.8
2015-May-04 18:33N 52°17' E 005°01'7 7.5
2015-May-04 17:33N 52°10' E 004°60'7 7.2
2015-May-04 16:33N 52°04' E 005°06'7 7.0
2015-May-04 15:33N 51°59' E 005°15'4 3.9
2015-May-04 14:33N 51°58' E 005°21'6 4.2
2015-May-04 13:08N 51°52' E 005°26'4 6.5
2015-May-04 12:33N 51°49' E 005°23'1 0.9
2015-May-04 11:33N 51°48' E 005°23'5 4.5
2015-May-04 10:24N 51°49' E 005°31'2 1.0
2015-May-04 08:32N 51°47' E 005°33'0 0.0
2015-May-04 06:14N 51°47' E 005°33'0 0.0
2015-May-04 04:20N 51°47' E 005°33'0 0.0
2015-May-03 09:15N 51°47' E 005°33'0 0.0
2015-May-02 03:11N 51°47' E 005°33'0 0.0
2015-May-02 02:32N 51°47' E 005°33'0 0.0
2015-May-02 01:31N 51°47' E 005°33'0 0.0
2015-May-02 00:31N 51°47' E 005°33'0 0.0
2015-May-01 23:33N 51°47' E 005°33'0 0.0
2015-May-01 22:33N 51°47' E 005°33'0 0.0
2015-May-01 21:25N 51°47' E 005°33'0 0.0
2015-May-01 20:29N 51°47' E 005°33'0 0.0
2015-May-01 19:32N 51°47' E 005°33'0 0.0
2015-May-01 18:17N 51°47' E 005°33'0 0.0
2015-May-01 17:31N 51°47' E 005°33'0 0.0
2015-May-01 16:15N 51°47' E 005°33'1 0.1
2015-May-01 05:27N 51°49' E 005°32'3 3.5
2015-May-01 04:33N 51°49' E 005°27'0 0.1
2015-May-01 03:32N 51°49' E 005°27'0 0.0
2015-May-01 02:32N 51°49' E 005°27'0 0.0
2015-May-01 01:33N 51°49' E 005°27'0 0.0
2015-May-01 00:32N 51°49' E 005°27'0 0.0
2015-Apr-30 23:32N 51°49' E 005°27'0 0.0
2015-Apr-30 22:33N 51°49' E 005°27'0 0.0
2015-Apr-30 21:31N 51°49' E 005°27'0 0.0
2015-Apr-30 20:33N 51°49' E 005°27'0 0.0
2015-Apr-30 19:32N 51°49' E 005°27'1 1.2
2015-Apr-30 18:31N 51°49' E 005°25'5 5.3
2015-Apr-30 17:34N 51°45' E 005°20'14 4.4
2015-Apr-30 14:16N 51°49' E 004°58'4 6.3
2015-Apr-30 13:33N 51°49' E 004°51'6 6.5
2015-Apr-30 12:33N 51°50' E 004°40'7 7.1
2015-Apr-30 11:33N 51°54' E 004°31'6 5.6
2015-Apr-30 10:33N 51°54' E 004°22'0 0.0
2015-Apr-30 09:33N 51°54' E 004°22'0 0.0
2015-Apr-30 08:33N 51°54' E 004°22'0 0.0
2015-Apr-30 07:33N 51°54' E 004°22'0 0.0
2015-Apr-30 06:33N 51°54' E 004°22'0 0.0
2015-Apr-30 05:33N 51°54' E 004°22'0 0.0
2015-Apr-30 04:33N 51°54' E 004°22'1 0.6
2015-Apr-30 03:33N 51°54' E 004°21'0 0.0
2015-Apr-30 02:33N 51°54' E 004°21'0 0.0
2015-Apr-30 01:33N 51°54' E 004°21'0 0.0
2015-Apr-30 00:33N 51°54' E 004°21'0 0.0
2015-Apr-29 23:33N 51°54' E 004°21'0 0.0
2015-Apr-29 22:33N 51°54' E 004°21'0 0.0
2015-Apr-29 21:32N 51°54' E 004°21'0 0.0
2015-Apr-29 20:33N 51°54' E 004°21'0 0.0
2015-Apr-29 19:32N 51°54' E 004°21'4 4.6
2015-Apr-29 18:33N 51°54' E 004°28'7 7.0
2015-Apr-29 17:33N 51°52' E 004°39'8 7.6
2015-Apr-29 16:34N 51°49' E 004°51'13 9.1
2015-Apr-29 15:10N 51°49' E 005°11'6 9.0
2015-Apr-29 14:33N 51°49' E 005°20'13 8.9
2015-Apr-29 13:03N 51°54' E 005°40'5 9.7
2015-Apr-29 12:30N 51°52' E 005°48'2 0.7
2015-Apr-29 09:07N 51°51' E 005°51'0 0.0
2015-Apr-29 05:31N 51°51' E 005°51'0 0.0
2015-Apr-28 06:25N 51°51' E 005°51'0 0.0
2015-Apr-28 04:24N 51°51' E 005°51'0 0.0
2015-Apr-28 03:10N 51°51' E 005°51'0 0.0
2015-Apr-28 02:09N 51°51' E 005°51'0 0.0
2015-Apr-28 01:12N 51°51' E 005°51'0 0.0
2015-Apr-27 09:32N 51°51' E 005°51'0 0.0
2015-Apr-27 08:15N 51°51' E 005°51'0 0.0
2015-Apr-27 07:33N 51°51' E 005°51'0 0.0
2015-Apr-27 06:21N 51°51' E 005°51'0 0.0
2015-Apr-27 04:23N 51°51' E 005°51'0 0.0
2015-Apr-26 07:08N 51°51' E 005°51'0 0.0
2015-Apr-26 06:33N 51°51' E 005°51'0 0.0
2015-Apr-26 04:15N 51°51' E 005°51'0 0.0
2015-Apr-26 03:26N 51°51' E 005°51'0 0.0
2015-Apr-26 02:19N 51°51' E 005°51'0 0.0
2015-Apr-25 08:04N 51°51' E 005°51'  
Track history (hours):
 
Tides and Currents Weather Stations Pressure Air Temp Water Temp Dewpoint Dewpoint Depression Visibility Wind Speed Wind Dir Waves Ship Positions

Prudentia

Last reported at 2015-May-05 07:33 UTC. Time now 2015-May-05 08:12 UTC.
Position N 52°24' E 004°52'.

Length 70 m; draft 1.8 m.

Type: Ship. MMSI: 244660779.

Date/timePositionNaut miles runAvg speedWind from/ knotsBaromVisibWave heightAir tempDewpointWater temp
2015-May-05 07:33N 52°24' E 004°52'0 0.0
2015-May-05 06:33N 52°24' E 004°52'0 0.0
2015-May-05 05:33N 52°24' E 004°52'0 0.0
2015-May-05 04:33N 52°24' E 004°52'0 0.0
2015-May-05 03:33N 52°24' E 004°52'0 0.0
2015-May-05 02:33N 52°24' E 004°52'0 0.0
2015-May-05 01:33N 52°24' E 004°52'0 0.0
2015-May-05 00:33N 52°24' E 004°52'0 0.0
2015-May-04 23:33N 52°24' E 004°52'0 0.0
2015-May-04 22:33N 52°24' E 004°52'0 0.0
2015-May-04 21:33N 52°24' E 004°52'0 0.0
2015-May-04 20:33N 52°24' E 004°52'3 2.6
2015-May-04 19:34N 52°23' E 004°56'7 6.8
2015-May-04 18:33N 52°17' E 005°01'7 7.5
2015-May-04 17:33N 52°10' E 004°60'7 7.2
2015-May-04 16:33N 52°04' E 005°06'7 7.0
2015-May-04 15:33N 51°59' E 005°15'4 3.9
2015-May-04 14:33N 51°58' E 005°21'6 4.2
2015-May-04 13:08N 51°52' E 005°26'4 6.5
2015-May-04 12:33N 51°49' E 005°23'1 0.9
2015-May-04 11:33N 51°48' E 005°23'5 4.5
2015-May-04 10:24N 51°49' E 005°31'2 1.0
2015-May-04 08:32N 51°47' E 005°33'0 0.0
2015-May-04 06:14N 51°47' E 005°33'0 0.0
2015-May-04 04:20N 51°47' E 005°33'0 0.0
2015-May-03 09:15N 51°47' E 005°33'0 0.0
2015-May-02 03:11N 51°47' E 005°33'0 0.0
2015-May-02 02:32N 51°47' E 005°33'0 0.0
2015-May-02 01:31N 51°47' E 005°33'0 0.0
2015-May-02 00:31N 51°47' E 005°33'0 0.0
2015-May-01 23:33N 51°47' E 005°33'0 0.0
2015-May-01 22:33N 51°47' E 005°33'0 0.0
2015-May-01 21:25N 51°47' E 005°33'0 0.0
2015-May-01 20:29N 51°47' E 005°33'0 0.0
2015-May-01 19:32N 51°47' E 005°33'0 0.0
2015-May-01 18:17N 51°47' E 005°33'0 0.0
2015-May-01 17:31N 51°47' E 005°33'0 0.0
2015-May-01 16:15N 51°47' E 005°33'1 0.1
2015-May-01 05:27N 51°49' E 005°32'3 3.5
2015-May-01 04:33N 51°49' E 005°27'0 0.1
2015-May-01 03:32N 51°49' E 005°27'0 0.0
2015-May-01 02:32N 51°49' E 005°27'0 0.0
2015-May-01 01:33N 51°49' E 005°27'0 0.0
2015-May-01 00:32N 51°49' E 005°27'0 0.0
2015-Apr-30 23:32N 51°49' E 005°27'0 0.0
2015-Apr-30 22:33N 51°49' E 005°27'0 0.0
2015-Apr-30 21:31N 51°49' E 005°27'0 0.0
2015-Apr-30 20:33N 51°49' E 005°27'0 0.0
2015-Apr-30 19:32N 51°49' E 005°27'1 1.2
2015-Apr-30 18:31N 51°49' E 005°25'5 5.3
2015-Apr-30 17:34N 51°45' E 005°20'14 4.4
2015-Apr-30 14:16N 51°49' E 004°58'4 6.3
2015-Apr-30 13:33N 51°49' E 004°51'6 6.5
2015-Apr-30 12:33N 51°50' E 004°40'7 7.1
2015-Apr-30 11:33N 51°54' E 004°31'6 5.6
2015-Apr-30 10:33N 51°54' E 004°22'0 0.0
2015-Apr-30 09:33N 51°54' E 004°22'0 0.0
2015-Apr-30 08:33N 51°54' E 004°22'0 0.0
2015-Apr-30 07:33N 51°54' E 004°22'0 0.0
2015-Apr-30 06:33N 51°54' E 004°22'0 0.0
2015-Apr-30 05:33N 51°54' E 004°22'0 0.0
2015-Apr-30 04:33N 51°54' E 004°22'1 0.6
2015-Apr-30 03:33N 51°54' E 004°21'0 0.0
2015-Apr-30 02:33N 51°54' E 004°21'0 0.0
2015-Apr-30 01:33N 51°54' E 004°21'0 0.0
2015-Apr-30 00:33N 51°54' E 004°21'0 0.0
2015-Apr-29 23:33N 51°54' E 004°21'0 0.0
2015-Apr-29 22:33N 51°54' E 004°21'0 0.0
2015-Apr-29 21:32N 51°54' E 004°21'0 0.0
2015-Apr-29 20:33N 51°54' E 004°21'0 0.0
2015-Apr-29 19:32N 51°54' E 004°21'4 4.6
2015-Apr-29 18:33N 51°54' E 004°28'7 7.0
2015-Apr-29 17:33N 51°52' E 004°39'8 7.6
2015-Apr-29 16:34N 51°49' E 004°51'13 9.1
2015-Apr-29 15:10N 51°49' E 005°11'6 9.0
2015-Apr-29 14:33N 51°49' E 005°20'13 8.9
2015-Apr-29 13:03N 51°54' E 005°40'5 9.7
2015-Apr-29 12:30N 51°52' E 005°48'2 0.7
2015-Apr-29 09:07N 51°51' E 005°51'0 0.0
2015-Apr-29 05:31N 51°51' E 005°51'0 0.0
2015-Apr-28 06:25N 51°51' E 005°51'0 0.0
2015-Apr-28 04:24N 51°51' E 005°51'0 0.0
2015-Apr-28 03:10N 51°51' E 005°51'0 0.0
2015-Apr-28 02:09N 51°51' E 005°51'0 0.0
2015-Apr-28 01:12N 51°51' E 005°51'0 0.0
2015-Apr-27 09:32N 51°51' E 005°51'0 0.0
2015-Apr-27 08:15N 51°51' E 005°51'0 0.0
2015-Apr-27 07:33N 51°51' E 005°51'0 0.0
2015-Apr-27 06:21N 51°51' E 005°51'0 0.0
2015-Apr-27 04:23N 51°51' E 005°51'0 0.0
2015-Apr-26 07:08N 51°51' E 005°51'0 0.0
2015-Apr-26 06:33N 51°51' E 005°51'0 0.0
2015-Apr-26 04:15N 51°51' E 005°51'0 0.0
2015-Apr-26 03:26N 51°51' E 005°51'0 0.0
2015-Apr-26 02:19N 51°51' E 005°51'0 0.0
2015-Apr-25 08:04N 51°51' E 005°51'  

Dump ship's entire track history